Time;durP1;ratioP1;P1;durP2;ratioP2;P2;SDS_P1;SDS_P2;PMS_P1;PMS_P2;Temp;Humidity;BMP_temperature;BMP_pressure;BME280_temperature;BME280_humidity;BME280_pressure;Samples;Min_cycle;Max_cycle;Signal;HPM_P1;HPM_P2
2023/05/12 00:01:15;;;;;;;5.97;4.30;;;15.30;52.50;;;;;;5220114;28;20179;-49
2023/05/12 00:03:46;;;;;;;3.37;3.17;;;15.30;52.20;;;;;;5226838;28;20452;-49
2023/05/12 00:06:17;;;;;;;3.87;3.57;;;15.30;52.50;;;;;;5225301;28;20193;-49
2023/05/12 00:08:47;;;;;;;4.20;3.87;;;15.20;52.50;;;;;;5222148;28;20623;-49
2023/05/12 00:11:18;;;;;;;3.40;3.07;;;15.10;52.50;;;;;;5224819;28;20180;-49
2023/05/12 00:13:48;;;;;;;8.80;4.30;;;15.10;52.70;;;;;;5240918;22;20787;-47
2023/05/12 00:16:19;;;;;;;3.47;3.23;;;15.00;52.70;;;;;;5218785;28;20192;-48
2023/05/12 00:18:51;;;;;;;4.03;3.53;;;15.00;52.90;;;;;;5225596;28;20199;-48
2023/05/12 00:21:21;;;;;;;5.63;4.37;;;14.90;52.90;;;;;;5223671;28;20282;-47
2023/05/12 00:23:52;;;;;;;9.00;4.23;;;14.90;53.00;;;;;;5219376;28;20540;-48
2023/05/12 00:26:23;;;;;;;8.70;4.00;;;14.80;52.90;;;;;;5223764;28;20183;-48
2023/05/12 00:28:53;;;;;;;9.73;3.93;;;14.80;53.10;;;;;;5221201;28;20190;-48
2023/05/12 00:31:24;;;;;;;6.00;4.20;;;14.80;53.30;;;;;;5220285;28;20187;-47
2023/05/12 00:33:55;;;;;;;4.50;4.03;;;14.70;53.50;;;;;;5225399;28;20198;-48
2023/05/12 00:36:25;;;;;;;6.20;3.87;;;14.60;53.50;;;;;;5222466;28;20561;-48
2023/05/12 00:38:57;;;;;;;4.00;3.67;;;14.60;53.60;;;;;;5218568;28;20322;-49
2023/05/12 00:41:27;;;;;;;3.83;3.53;;;14.50;53.70;;;;;;5224285;28;20234;-48
2023/05/12 00:43:58;;;;;;;3.20;3.00;;;14.50;53.90;;;;;;5222801;28;20490;-48
2023/05/12 00:46:29;;;;;;;3.73;3.40;;;14.40;54.10;;;;;;5219660;28;20191;-48
2023/05/12 00:48:59;;;;;;;4.10;3.73;;;14.40;54.20;;;;;;5225200;28;20183;-48
2023/05/12 00:51:31;;;;;;;4.37;3.60;;;14.30;54.30;;;;;;5226646;28;20285;-47
2023/05/12 00:54:01;;;;;;;5.87;3.63;;;14.30;54.60;;;;;;5220105;28;20194;-48
2023/05/12 00:56:38;;;;;;;5.10;4.10;;;14.30;54.60;;;;;;5223726;28;20444;-47
2023/05/12 00:59:08;;;;;;;3.57;3.27;;;14.20;54.50;;;;;;5222633;28;20497;-46
2023/05/12 01:01:39;;;;;;;8.70;4.17;;;14.20;54.60;;;;;;5223768;28;20496;-49
2023/05/12 01:04:10;;;;;;;5.80;3.60;;;14.20;54.60;;;;;;5219873;28;20702;-49
2023/05/12 01:06:51;;;;;;;3.87;3.57;;;14.20;54.60;;;;;;5221043;28;20287;-48
2023/05/12 01:09:21;;;;;;;5.17;3.43;;;14.30;54.60;;;;;;5222041;28;20186;-49
2023/05/12 01:11:52;;;;;;;4.03;3.73;;;14.30;54.50;;;;;;5221003;28;20519;-48
2023/05/12 01:14:23;;;;;;;4.90;4.20;;;14.30;54.60;;;;;;5222566;28;20635;-48
2023/05/12 01:16:59;;;;;;;4.90;3.80;;;14.30;54.60;;;;;;5222046;28;20187;-48
2023/05/12 01:19:55;;;;;;;4.43;4.00;;;14.20;54.50;;;;;;5219476;28;20210;-48
2023/05/12 01:22:30;;;;;;;4.87;3.57;;;14.20;54.60;;;;;;5231731;28;20469;-47
2023/05/12 01:25:03;;;;;;;4.77;4.20;;;14.20;54.90;;;;;;5223064;28;20486;-47
2023/05/12 01:27:34;;;;;;;4.90;3.70;;;14.20;55.10;;;;;;5225197;28;20422;-49
2023/05/12 01:30:06;;;;;;;8.63;3.40;;;14.20;55.10;;;;;;5223389;28;20437;-47
2023/05/12 01:32:39;;;;;;;4.10;3.80;;;14.10;55.20;;;;;;5217913;28;20544;-49
2023/05/12 01:35:10;;;;;;;4.50;4.10;;;14.10;55.30;;;;;;5222135;28;20507;-49
2023/05/12 01:37:40;;;;;;;4.37;3.97;;;14.10;55.50;;;;;;5220571;28;20480;-49
2023/05/12 01:40:11;;;;;;;7.47;3.50;;;14.00;55.50;;;;;;5222515;28;20211;-48
2023/05/12 01:42:42;;;;;;;14.03;3.63;;;14.00;55.50;;;;;;5221012;28;20678;-49
2023/05/12 01:45:12;;;;;;;3.97;3.67;;;14.00;55.90;;;;;;5227722;28;20225;-48
2023/05/12 01:47:43;;;;;;;6.67;3.77;;;13.90;56.10;;;;;;5229231;28;20186;-49
2023/05/12 01:50:14;;;;;;;4.10;3.63;;;13.90;56.30;;;;;;5227211;28;20195;-49
2023/05/12 01:52:45;;;;;;;4.80;4.40;;;13.80;56.40;;;;;;5225251;28;20211;-49
2023/05/12 01:55:16;;;;;;;5.40;3.60;;;13.80;56.80;;;;;;5226763;28;20182;-48
2023/05/12 01:57:46;;;;;;;10.70;3.70;;;13.70;56.70;;;;;;5228206;28;20428;-48
2023/05/12 02:00:17;;;;;;;6.93;4.23;;;13.70;57.00;;;;;;5228556;28;20465;-47
2023/05/12 02:02:48;;;;;;;17.67;4.30;;;13.70;57.30;;;;;;5229855;28;20209;-48
2023/05/12 02:05:19;;;;;;;8.03;3.80;;;13.60;57.80;;;;;;5228543;28;20345;-47
2023/05/12 02:07:49;;;;;;;5.07;4.20;;;13.50;58.10;;;;;;5232611;28;20212;-49
2023/05/12 02:10:20;;;;;;;7.27;4.23;;;13.50;58.40;;;;;;5224036;28;20433;-48
2023/05/12 02:12:51;;;;;;;10.70;4.30;;;13.40;58.80;;;;;;5211745;28;20217;-49
2023/05/12 02:15:22;;;;;;;7.67;4.00;;;13.40;59.30;;;;;;5228456;28;20449;-47
2023/05/12 02:17:53;;;;;;;11.57;4.00;;;13.30;59.70;;;;;;5231024;28;20570;-47
2023/05/12 02:20:24;;;;;;;6.40;3.80;;;13.30;59.90;;;;;;5228429;28;20213;-48
2023/05/12 02:22:55;;;;;;;8.10;4.10;;;13.20;60.40;;;;;;5228121;28;20465;-48
2023/05/12 02:25:25;;;;;;;7.30;3.70;;;13.20;60.90;;;;;;5226800;28;20285;-49
2023/05/12 02:27:56;;;;;;;6.27;4.47;;;13.10;61.80;;;;;;5230686;28;20421;-47
2023/05/12 02:30:27;;;;;;;6.97;4.80;;;13.00;63.10;;;;;;5225699;28;20199;-48
2023/05/12 02:32:57;;;;;;;15.50;4.37;;;13.00;63.20;;;;;;5223257;28;20584;-47
2023/05/12 02:35:28;;;;;;;11.47;4.50;;;12.90;64.40;;;;;;5225301;28;20233;-48
2023/05/12 02:37:58;;;;;;;12.43;4.07;;;12.90;65.00;;;;;;5229794;28;20222;-48
2023/05/12 02:40:29;;;;;;;10.70;4.37;;;12.80;65.70;;;;;;5225758;28;20647;-48
2023/05/12 02:43:00;;;;;;;10.20;4.00;;;12.80;66.50;;;;;;5226657;28;20210;-49
2023/05/12 02:45:31;;;;;;;6.53;3.30;;;12.70;67.60;;;;;;5227261;28;20332;-49
2023/05/12 02:48:01;;;;;;;7.10;4.17;;;12.70;68.40;;;;;;5228423;28;20182;-49
2023/05/12 02:50:32;;;;;;;4.47;3.93;;;12.60;69.50;;;;;;5227477;28;20194;-49
2023/05/12 02:53:03;;;;;;;10.27;4.23;;;12.60;70.20;;;;;;5228547;28;20577;-49
2023/05/12 02:55:33;;;;;;;12.20;4.73;;;12.60;71.50;;;;;;5222853;28;20593;-48
2023/05/12 02:58:04;;;;;;;5.80;4.40;;;12.50;71.90;;;;;;5222870;28;20193;-48
2023/05/12 03:00:34;;;;;;;4.73;4.10;;;12.50;73.00;;;;;;5226377;28;20252;-48
2023/05/12 03:03:05;;;;;;;12.70;4.33;;;12.40;73.70;;;;;;5221535;28;20196;-48
2023/05/12 03:05:36;;;;;;;4.33;3.87;;;12.30;74.90;;;;;;5223472;28;20230;-47
2023/05/12 03:08:06;;;;;;;5.27;4.40;;;12.30;75.60;;;;;;5219775;28;20196;-48
2023/05/12 03:10:37;;;;;;;5.57;3.93;;;12.30;76.30;;;;;;5223594;28;20670;-48
2023/05/12 03:13:08;;;;;;;16.07;4.50;;;12.30;77.70;;;;;;5223624;28;20687;-48
2023/05/12 03:15:38;;;;;;;4.00;3.70;;;12.20;78.70;;;;;;5217972;28;20274;-48
2023/05/12 03:18:09;;;;;;;5.40;3.83;;;12.20;79.80;;;;;;5223471;28;20202;-51
2023/05/12 03:20:40;;;;;;;7.10;4.03;;;12.10;80.60;;;;;;5224847;28;20742;-49
2023/05/12 03:23:10;;;;;;;7.07;4.60;;;12.10;81.40;;;;;;5221540;28;20202;-48
2023/05/12 03:25:41;;;;;;;7.37;4.30;;;12.10;82.00;;;;;;5220551;28;20215;-48
2023/05/12 03:28:11;;;;;;;8.87;4.30;;;12.10;83.10;;;;;;5226884;28;20179;-49
2023/05/12 03:30:42;;;;;;;5.93;4.60;;;12.00;84.10;;;;;;5219257;28;20237;-47
2023/05/12 03:33:13;;;;;;;4.97;3.80;;;12.00;84.80;;;;;;5225981;28;20206;-48
2023/05/12 03:35:43;;;;;;;6.13;4.07;;;12.00;85.80;;;;;;5223591;28;20522;-47
2023/05/12 03:38:14;;;;;;;7.03;3.60;;;12.00;86.60;;;;;;5222166;28;20178;-49
2023/05/12 03:40:47;;;;;;;5.13;4.10;;;12.00;86.90;;;;;;5219465;28;20247;-48
2023/05/12 03:43:18;;;;;;;4.77;4.10;;;11.90;87.50;;;;;;5225894;28;20210;-48
2023/05/12 03:45:48;;;;;;;8.13;4.70;;;11.90;88.90;;;;;;5215544;28;20433;-48
2023/05/12 03:48:19;;;;;;;8.47;4.33;;;12.00;88.90;;;;;;5234999;28;20450;-49
2023/05/12 03:50:50;;;;;;;9.80;4.30;;;12.00;89.60;;;;;;5224394;28;20183;-48
2023/05/12 03:53:20;;;;;;;8.07;4.90;;;11.90;89.90;;;;;;5223057;28;20218;-47
2023/05/12 03:55:51;;;;;;;14.63;4.40;;;11.90;90.30;;;;;;5221405;28;20265;-46
2023/05/12 03:58:24;;;;;;;8.57;4.30;;;11.90;90.40;;;;;;5225735;28;20238;-47
2023/05/12 04:00:58;;;;;;;5.53;4.77;;;11.90;90.80;;;;;;5223558;28;20715;-47
2023/05/12 04:03:29;;;;;;;8.50;4.43;;;11.90;90.70;;;;;;5222119;28;20842;-47
2023/05/12 04:06:01;;;;;;;5.60;4.03;;;11.90;91.00;;;;;;5221507;28;20439;-47
2023/05/12 04:08:32;;;;;;;6.43;4.40;;;12.00;91.40;;;;;;5223491;28;20651;-48
2023/05/12 04:11:03;;;;;;;12.03;4.50;;;12.00;91.10;;;;;;5222656;28;20442;-48
2023/05/12 04:13:34;;;;;;;6.93;4.40;;;12.00;91.00;;;;;;5221075;28;20461;-48
2023/05/12 04:16:04;;;;;;;12.40;4.10;;;12.10;90.90;;;;;;5221992;28;20683;-48
2023/05/12 04:18:35;;;;;;;6.33;4.20;;;12.20;90.70;;;;;;5236592;28;20650;-47
2023/05/12 04:21:06;;;;;;;9.37;4.83;;;12.30;90.60;;;;;;5221491;28;20192;-47
2023/05/12 04:23:36;;;;;;;8.07;4.63;;;12.30;90.40;;;;;;5225121;28;20244;-48
2023/05/12 04:26:07;;;;;;;6.17;4.67;;;12.40;90.20;;;;;;5223954;28;20187;-48
2023/05/12 04:28:38;;;;;;;7.30;4.60;;;12.40;89.80;;;;;;5222601;28;20183;-49
2023/05/12 04:31:08;;;;;;;8.30;4.50;;;12.50;89.30;;;;;;5223690;28;20240;-48
2023/05/12 04:33:39;;;;;;;7.13;4.10;;;12.60;88.70;;;;;;5223670;28;20330;-47
2023/05/12 04:36:12;;;;;;;4.97;4.47;;;12.70;87.90;;;;;;5222102;28;20191;-48
2023/05/12 04:38:43;;;;;;;9.10;4.77;;;12.80;86.70;;;;;;5221689;28;20685;-47
2023/05/12 04:41:13;;;;;;;14.93;4.20;;;12.90;86.80;;;;;;5221319;28;20434;-48
2023/05/12 04:43:44;;;;;;;5.10;4.40;;;13.00;85.70;;;;;;5224479;28;20199;-48
2023/05/12 04:46:14;;;;;;;6.80;4.57;;;13.00;84.50;;;;;;5237229;28;20179;-48
2023/05/12 04:48:45;;;;;;;10.70;4.73;;;13.10;84.40;;;;;;5220383;28;20590;-47
2023/05/12 04:51:16;;;;;;;8.30;5.13;;;13.20;83.20;;;;;;5227000;28;20282;-48
2023/05/12 04:53:46;;;;;;;9.50;4.20;;;13.10;82.30;;;;;;5220111;28;20641;-47
2023/05/12 04:56:17;;;;;;;7.97;4.83;;;13.10;83.80;;;;;;5223382;28;20225;-48
2023/05/12 04:58:47;;;;;;;14.10;5.70;;;13.10;83.80;;;;;;5216498;28;20206;-47
2023/05/12 05:01:18;;;;;;;8.80;5.23;;;13.20;83.20;;;;;;5220787;28;20179;-48
2023/05/12 05:03:49;;;;;;;7.23;4.80;;;13.20;82.50;;;;;;5223620;28;20667;-49
2023/05/12 05:06:19;;;;;;;5.83;5.20;;;13.20;82.60;;;;;;5221515;28;20543;-49
2023/05/12 05:08:50;;;;;;;5.87;5.37;;;14.10;81.50;;;;;;5221789;28;20670;-48
2023/05/12 05:11:21;;;;;;;8.67;4.27;;;15.30;71.50;;;;;;5219205;28;20194;-48
2023/05/12 05:13:52;;;;;;;7.07;4.40;;;15.90;64.70;;;;;;5221124;28;20215;-47
2023/05/12 05:16:23;;;;;;;7.93;5.00;;;15.50;63.30;;;;;;5222610;28;20809;-47
2023/05/12 05:18:53;;;;;;;6.67;4.90;;;15.20;64.70;;;;;;5222631;28;20294;-48
2023/05/12 05:21:25;;;;;;;7.97;4.80;;;15.00;65.00;;;;;;5220128;28;20906;-48
2023/05/12 05:23:55;;;;;;;8.43;4.90;;;15.50;65.00;;;;;;5224905;28;20198;-49
2023/05/12 05:26:26;;;;;;;4.67;4.30;;;15.90;62.90;;;;;;5224864;28;20437;-49
2023/05/12 05:28:57;;;;;;;13.37;6.20;;;17.40;59.00;;;;;;5220864;28;20191;-50
2023/05/12 05:31:27;;;;;;;18.90;5.17;;;19.40;53.30;;;;;;5221157;28;20182;-50
2023/05/12 05:33:58;;;;;;;6.77;3.93;;;21.00;48.90;;;;;;5220419;28;20561;-49
2023/05/12 05:36:29;;;;;;;11.53;4.87;;;22.30;45.00;;;;;;5221644;28;20194;-49
2023/05/12 05:39:00;;;;;;;8.10;4.80;;;23.30;41.90;;;;;;5219576;28;20212;-49
2023/05/12 05:41:30;;;;;;;6.63;4.20;;;23.50;40.20;;;;;;5224130;28;20449;-49
2023/05/12 05:44:01;;;;;;;5.37;4.50;;;23.70;39.20;;;;;;5224280;28;20209;-49
2023/05/12 05:46:31;;;;;;;5.90;4.30;;;23.70;38.90;;;;;;5218228;28;20659;-50
2023/05/12 05:49:02;;;;;;;7.80;4.87;;;23.60;39.40;;;;;;5224222;28;20186;-49
2023/05/12 05:51:33;;;;;;;26.73;4.60;;;24.50;38.90;;;;;;5221561;28;20650;-51
2023/05/12 05:54:03;;;;;;;5.27;4.73;;;25.60;36.90;;;;;;5216808;28;20741;-51
2023/05/12 05:56:34;;;;;;;5.70;4.20;;;26.60;35.20;;;;;;5219106;28;20196;-50
2023/05/12 05:59:05;;;;;;;12.13;5.23;;;26.90;33.20;;;;;;5219694;28;20229;-52
2023/05/12 06:01:36;;;;;;;15.70;5.40;;;26.60;33.60;;;;;;5223654;28;20928;-51
2023/05/12 06:04:06;;;;;;;7.70;4.07;;;26.20;34.20;;;;;;5218300;28;20250;-49
2023/05/12 06:06:37;;;;;;;16.13;4.60;;;26.40;34.10;;;;;;5218419;28;20599;-49
2023/05/12 06:09:11;;;;;;;6.43;4.60;;;26.60;33.30;;;;;;5219029;28;20183;-49
2023/05/12 06:11:41;;;;;;;12.17;5.07;;;26.50;33.20;;;;;;5223182;28;20670;-49
2023/05/12 06:14:12;;;;;;;9.90;5.07;;;26.30;33.50;;;;;;5233956;22;20567;-49
2023/05/12 06:16:43;;;;;;;11.00;4.23;;;26.10;33.70;;;;;;5225997;28;20194;-51
2023/05/12 06:19:14;;;;;;;14.67;3.70;;;26.50;34.00;;;;;;5222094;28;20206;-50
2023/05/12 06:21:45;;;;;;;4.63;3.80;;;27.00;32.60;;;;;;5221723;28;20179;-49
2023/05/12 06:24:15;;;;;;;5.33;3.60;;;27.60;32.20;;;;;;5221110;28;20445;-51
2023/05/12 06:26:46;;;;;;;14.07;3.83;;;28.40;31.30;;;;;;5222061;28;20241;-49
2023/05/12 06:29:17;;;;;;;8.13;3.97;;;28.80;29.80;;;;;;5223163;28;20566;-50
2023/05/12 06:31:48;;;;;;;4.03;3.60;;;28.40;29.90;;;;;;5226820;28;20187;-49
2023/05/12 06:34:18;;;;;;;6.40;3.77;;;28.10;29.80;;;;;;5225282;28;20452;-49
2023/05/12 06:36:49;;;;;;;4.83;3.87;;;27.70;30.20;;;;;;5225309;28;20182;-49
2023/05/12 06:39:20;;;;;;;10.80;4.40;;;27.60;30.70;;;;;;5219716;28;20249;-52
2023/05/12 06:41:51;;;;;;;5.90;4.57;;;27.20;30.60;;;;;;5225394;28;20185;-50
2023/05/12 06:44:22;;;;;;;8.33;4.10;;;27.50;31.10;;;;;;5229579;28;20200;-51
2023/05/12 06:46:53;;;;;;;4.97;3.90;;;27.90;30.70;;;;;;5226040;28;20772;-50
2023/05/12 06:49:24;;;;;;;7.70;4.30;;;28.30;30.10;;;;;;5226517;28;20745;-49
2023/05/12 06:51:54;;;;;;;8.50;3.23;;;28.40;30.00;;;;;;5221145;28;20187;-50
2023/05/12 06:54:25;;;;;;;12.37;3.97;;;28.40;29.80;;;;;;5227324;28;20675;-50
2023/05/12 06:56:56;;;;;;;5.80;4.40;;;28.20;29.90;;;;;;5223263;28;20187;-49
2023/05/12 06:59:27;;;;;;;9.00;4.03;;;28.20;29.70;;;;;;5222962;28;20314;-51
2023/05/12 07:01:58;;;;;;;11.27;4.30;;;28.30;30.20;;;;;;5219639;28;20528;-50
2023/05/12 07:04:28;;;;;;;6.23;4.00;;;28.40;29.80;;;;;;5223124;28;20697;-50
2023/05/12 07:06:59;;;;;;;8.70;3.93;;;28.40;30.00;;;;;;5207152;28;20192;-49
2023/05/12 07:09:29;;;;;;;12.03;4.23;;;28.20;30.10;;;;;;5224742;28;20192;-49
2023/05/12 07:12:00;;;;;;;6.70;4.30;;;28.10;30.20;;;;;;5226347;28;20183;-50
2023/05/12 07:14:31;;;;;;;10.20;3.60;;;28.50;30.00;;;;;;5226069;28;20670;-52
2023/05/12 07:17:01;;;;;;;7.37;3.67;;;29.30;29.60;;;;;;5224987;28;20190;-50
2023/05/12 07:19:34;;;;;;;13.83;3.93;;;29.70;28.50;;;;;;5225723;28;20209;-49
2023/05/12 07:22:05;;;;;;;12.37;3.47;;;29.40;28.70;;;;;;5223244;28;20531;-51
2023/05/12 07:24:36;;;;;;;3.70;3.40;;;29.30;29.40;;;;;;5224866;28;20497;-52
2023/05/12 07:27:07;;;;;;;4.90;3.20;;;29.70;29.00;;;;;;5224982;28;20615;-52
2023/05/12 07:29:37;;;;;;;5.93;3.00;;;29.60;28.80;;;;;;5222218;28;20457;-50
2023/05/12 07:32:08;;;;;;;4.33;3.73;;;29.80;28.70;;;;;;5219582;28;20194;-51
2023/05/12 07:34:39;;;;;;;3.23;3.00;;;29.40;28.90;;;;;;5227570;28;20593;-50
2023/05/12 07:37:10;;;;;;;5.90;4.00;;;29.30;28.80;;;;;;5225453;28;20194;-51
2023/05/12 07:39:40;;;;;;;4.23;3.10;;;29.30;28.60;;;;;;5224772;28;20214;-50
2023/05/12 07:42:11;;;;;;;13.23;3.90;;;28.90;29.40;;;;;;5225726;28;20436;-50
2023/05/12 07:44:42;;;;;;;5.83;3.30;;;29.00;29.20;;;;;;5225715;28;20205;-51
2023/05/12 07:47:13;;;;;;;3.70;3.40;;;29.10;29.10;;;;;;5224888;28;20233;-48
2023/05/12 07:49:43;;;;;;;4.63;3.80;;;29.50;28.80;;;;;;5224084;28;20289;-51
2023/05/12 07:52:14;;;;;;;4.93;3.00;;;29.50;28.90;;;;;;5218831;28;20191;-50
2023/05/12 07:54:44;;;;;;;9.83;3.90;;;29.70;28.50;;;;;;5226160;28;20501;-50
2023/05/12 07:57:15;;;;;;;3.70;3.40;;;29.60;28.30;;;;;;5223478;28;20186;-50
2023/05/12 07:59:46;;;;;;;7.33;2.53;;;29.80;28.40;;;;;;5225066;28;20206;-49
2023/05/12 08:02:17;;;;;;;10.00;3.30;;;29.90;27.70;;;;;;5221448;28;20527;-50
2023/05/12 08:04:49;;;;;;;9.13;3.00;;;29.40;28.00;;;;;;5221709;28;20252;-49
2023/05/12 08:07:19;;;;;;;4.70;3.67;;;29.00;28.40;;;;;;5222522;28;20201;-50
2023/05/12 08:09:51;;;;;;;17.73;3.63;;;28.30;28.80;;;;;;5225582;28;20438;-49
2023/05/12 08:12:22;;;;;;;3.20;2.90;;;27.80;29.10;;;;;;5226918;28;20522;-49
2023/05/12 08:14:52;;;;;;;9.17;3.50;;;27.20;29.80;;;;;;5224725;28;20479;-50
2023/05/12 08:17:23;;;;;;;7.30;3.37;;;27.40;29.90;;;;;;5224756;28;20619;-50
2023/05/12 08:19:53;;;;;;;8.93;3.10;;;27.30;29.60;;;;;;5228243;28;20733;-50
2023/05/12 08:22:24;;;;;;;13.57;3.33;;;26.80;30.00;;;;;;5224008;28;20194;-49
2023/05/12 08:24:55;;;;;;;3.23;3.00;;;26.40;30.20;;;;;;5226076;28;20205;-50
2023/05/12 08:27:25;;;;;;;2.50;2.40;;;25.80;30.80;;;;;;5224034;28;20506;-50
2023/05/12 08:29:56;;;;;;;4.27;2.67;;;25.60;30.60;;;;;;5221416;28;20179;-50
2023/05/12 08:32:27;;;;;;;3.30;3.00;;;25.50;31.60;;;;;;5227107;28;20278;-49
2023/05/12 08:34:59;;;;;;;3.20;2.90;;;25.10;31.70;;;;;;5227549;28;20199;-50
2023/05/12 08:37:30;;;;;;;4.33;3.10;;;24.80;32.50;;;;;;5225227;28;20651;-50
2023/05/12 08:40:02;;;;;;;5.07;3.20;;;24.30;32.30;;;;;;5221754;28;20785;-48
2023/05/12 08:42:42;;;;;;;4.67;3.00;;;24.20;32.20;;;;;;5227368;28;20437;-49
2023/05/12 08:45:13;;;;;;;3.60;2.90;;;24.00;33.40;;;;;;5226986;28;20441;-50
2023/05/12 08:47:44;;;;;;;3.00;2.90;;;24.00;32.90;;;;;;5224786;28;20805;-49
2023/05/12 08:50:20;;;;;;;2.40;2.30;;;23.40;32.80;;;;;;5221726;28;20574;-49
2023/05/12 08:52:51;;;;;;;17.67;2.77;;;23.10;33.00;;;;;;5222315;28;20956;-50
2023/05/12 08:55:23;;;;;;;4.63;2.40;;;22.80;33.20;;;;;;5223855;28;20432;-49
2023/05/12 08:57:54;;;;;;;2.73;2.53;;;22.60;32.70;;;;;;5219162;28;20445;-49
2023/05/12 09:00:27;;;;;;;3.10;2.80;;;22.00;34.30;;;;;;5219788;28;20461;-49
2023/05/12 09:02:59;;;;;;;3.43;3.13;;;21.40;33.90;;;;;;5219151;28;20993;-50
2023/05/12 09:05:31;;;;;;;2.83;2.57;;;21.10;33.30;;;;;;5224642;28;20429;-50
2023/05/12 09:08:03;;;;;;;4.63;3.43;;;20.90;33.30;;;;;;5224279;28;20510;-49
2023/05/12 09:10:34;;;;;;;5.17;3.00;;;20.70;34.20;;;;;;5224448;28;21052;-49
2023/05/12 09:13:14;;;;;;;2.70;2.50;;;20.60;34.20;;;;;;5221945;28;20488;-49
2023/05/12 09:15:47;;;;;;;3.70;2.43;;;20.70;34.80;;;;;;5226531;28;20781;-49
2023/05/12 09:18:18;;;;;;;2.60;2.40;;;20.60;32.90;;;;;;5223763;28;20919;-50
2023/05/12 09:20:48;;;;;;;3.30;2.20;;;20.30;33.80;;;;;;5221229;28;20552;-49
2023/05/12 09:23:21;;;;;;;2.87;2.60;;;20.20;33.80;;;;;;5223411;28;20195;-49
2023/05/12 09:26:00;;;;;;;5.80;2.70;;;20.20;32.50;;;;;;5221859;28;20183;-50
2023/05/12 09:28:37;;;;;;;4.00;3.17;;;20.30;34.00;;;;;;5225037;28;20884;-49
2023/05/12 09:31:18;;;;;;;3.83;2.97;;;20.20;34.30;;;;;;5219671;28;20534;-50
2023/05/12 09:33:50;;;;;;;3.90;2.40;;;20.20;34.10;;;;;;5223310;28;20457;-49
2023/05/12 09:36:22;;;;;;;9.30;2.30;;;20.40;34.60;;;;;;5225931;28;20606;-50
2023/05/12 09:39:05;;;;;;;6.17;2.77;;;20.50;34.50;;;;;;5219422;28;20466;-49
2023/05/12 09:41:40;;;;;;;2.13;1.97;;;20.50;31.90;;;;;;5223374;28;20421;-49
2023/05/12 09:44:17;;;;;;;3.73;2.40;;;20.50;32.00;;;;;;5222438;28;20448;-50
2023/05/12 09:46:48;;;;;;;4.23;2.50;;;20.50;32.90;;;;;;5221383;28;20421;-49
2023/05/12 09:49:25;;;;;;;2.67;2.30;;;20.60;34.00;;;;;;5221307;28;20429;-50
2023/05/12 09:52:00;;;;;;;6.17;2.57;;;20.70;34.80;;;;;;5220003;28;20541;-51
2023/05/12 09:54:32;;;;;;;5.30;1.97;;;20.90;33.00;;;;;;5219766;28;20467;-50
2023/05/12 09:57:07;;;;;;;2.27;2.13;;;20.90;32.50;;;;;;5225614;28;20472;-49
2023/05/12 09:59:38;;;;;;;2.97;2.43;;;20.90;31.40;;;;;;5221222;28;20465;-50
2023/05/12 10:02:14;;;;;;;5.70;2.00;;;20.90;32.30;;;;;;5217170;28;20433;-50
2023/05/12 10:04:49;;;;;;;3.37;2.10;;;21.00;32.70;;;;;;5222631;28;20449;-49
2023/05/12 10:07:25;;;;;;;7.07;3.00;;;21.20;32.10;;;;;;5225881;28;20448;-50
2023/05/12 10:09:59;;;;;;;2.47;2.17;;;21.10;32.60;;;;;;5223149;28;20925;-50
2023/05/12 10:12:30;;;;;;;5.00;3.00;;;21.10;32.00;;;;;;5229920;28;20440;-50
2023/05/12 10:15:02;;;;;;;3.23;2.30;;;21.10;32.40;;;;;;5223998;28;20806;-50
2023/05/12 10:17:35;;;;;;;8.93;2.80;;;21.20;32.70;;;;;;5225184;28;20190;-49
2023/05/12 10:20:07;;;;;;;3.80;2.47;;;21.10;32.20;;;;;;5226683;28;20983;-50
2023/05/12 10:22:39;;;;;;;7.77;2.70;;;21.00;32.70;;;;;;5227381;28;20956;-50
2023/05/12 10:25:11;;;;;;;6.40;3.07;;;20.80;32.60;;;;;;5226091;28;20433;-50
2023/05/12 10:27:41;;;;;;;4.73;2.17;;;20.70;33.30;;;;;;5228716;28;20442;-50
2023/05/12 10:30:13;;;;;;;3.70;2.03;;;20.70;32.40;;;;;;5243483;28;20428;-51
2023/05/12 10:32:43;;;;;;;2.30;1.93;;;20.70;31.50;;;;;;5226754;28;20210;-50
2023/05/12 10:35:15;;;;;;;7.73;2.10;;;20.80;31.90;;;;;;5228835;28;20429;-51
2023/05/12 10:37:47;;;;;;;4.00;2.80;;;21.00;32.30;;;;;;5226576;28;20187;-51
2023/05/12 10:40:24;;;;;;;3.50;1.83;;;21.10;32.60;;;;;;5224330;28;20495;-50
2023/05/12 10:43:00;;;;;;;2.07;1.97;;;21.10;32.30;;;;;;5229990;28;20461;-50
2023/05/12 10:45:36;;;;;;;2.60;2.50;;;21.00;33.00;;;;;;5228477;28;20433;-49
2023/05/12 10:48:07;;;;;;;15.70;3.10;;;20.90;33.20;;;;;;5222933;28;20441;-48
2023/05/12 10:50:52;;;;;;;5.37;2.73;;;21.00;33.40;;;;;;5226919;28;20425;-49
2023/05/12 10:53:33;;;;;;;5.50;2.70;;;21.20;33.00;;;;;;5225272;28;20453;-50
2023/05/12 10:56:05;;;;;;;4.97;2.40;;;21.00;32.40;;;;;;5226841;28;20433;-49
2023/05/12 10:58:35;;;;;;;4.83;2.33;;;21.10;33.30;;;;;;5225951;28;20449;-48
2023/05/12 11:01:06;;;;;;;2.90;2.70;;;21.20;33.10;;;;;;5230065;28;20425;-50
2023/05/12 11:03:37;;;;;;;2.83;2.20;;;21.30;33.40;;;;;;5231339;28;20209;-49
2023/05/12 11:06:17;;;;;;;2.37;2.27;;;21.30;33.40;;;;;;5227671;28;20441;-51
2023/05/12 11:08:49;;;;;;;2.97;2.40;;;21.30;33.20;;;;;;5225669;28;20191;-54
2023/05/12 11:11:19;;;;;;;2.53;2.33;;;21.40;33.10;;;;;;5226128;28;20840;-50
2023/05/12 11:13:50;;;;;;;2.97;2.60;;;21.50;33.00;;;;;;5228981;28;20465;-51
2023/05/12 11:16:21;;;;;;;3.23;2.13;;;21.50;32.80;;;;;;5230578;28;20266;-50
2023/05/12 11:19:05;;;;;;;5.00;2.70;;;21.40;33.10;;;;;;5223353;28;20873;-49
2023/05/12 11:21:37;;;;;;;7.90;2.47;;;21.30;33.70;;;;;;5224604;28;20679;-50
2023/05/12 11:24:09;;;;;;;3.80;2.30;;;21.30;33.20;;;;;;5226531;28;21046;-51
2023/05/12 11:26:40;;;;;;;2.57;2.40;;;21.30;33.10;;;;;;5230372;28;20421;-51
2023/05/12 11:29:10;;;;;;;2.63;2.40;;;21.40;33.70;;;;;;5221823;28;20456;-51
2023/05/12 11:31:46;;;;;;;3.10;2.90;;;21.40;32.70;;;;;;5224946;28;20450;-50
2023/05/12 11:34:21;;;;;;;2.60;2.40;;;21.40;32.20;;;;;;5223150;28;20206;-51
2023/05/12 11:36:54;;;;;;;5.57;2.40;;;21.30;31.60;;;;;;5209364;28;20498;-49
2023/05/12 11:39:27;;;;;;;2.57;2.47;;;21.20;31.20;;;;;;5222991;28;21299;-49
2023/05/12 11:42:08;;;;;;;2.50;2.30;;;21.00;32.80;;;;;;5225738;28;20585;-50
2023/05/12 11:44:49;;;;;;;4.20;2.80;;;21.20;33.30;;;;;;5225919;28;21615;-50
2023/05/12 11:47:19;;;;;;;8.50;2.60;;;21.30;33.80;;;;;;5222993;28;20467;-51
2023/05/12 11:49:53;;;;;;;10.17;2.30;;;21.40;33.10;;;;;;5223380;28;20461;-51
2023/05/12 11:52:24;;;;;;;4.53;2.77;;;21.50;32.80;;;;;;5227833;28;20246;-50
2023/05/12 11:54:59;;;;;;;6.20;3.20;;;21.60;33.40;;;;;;5224774;28;20492;-51
2023/05/12 11:57:32;;;;;;;2.97;2.73;;;21.50;33.50;;;;;;5223281;28;20218;-51
2023/05/12 12:00:06;;;;;;;3.13;2.40;;;21.60;33.80;;;;;;5224746;28;20461;-50
2023/05/12 12:02:38;;;;;;;2.77;2.57;;;21.60;33.30;;;;;;5225985;28;20422;-50
2023/05/12 12:05:19;;;;;;;2.23;2.03;;;21.60;33.20;;;;;;5221832;28;20971;-51
2023/05/12 12:07:50;;;;;;;3.47;2.60;;;21.70;33.80;;;;;;5222971;28;20434;-50
2023/05/12 12:10:20;;;;;;;2.90;2.70;;;21.70;34.50;;;;;;5225094;28;20447;-50
2023/05/12 12:12:51;;;;;;;2.87;2.67;;;21.80;33.40;;;;;;5240117;22;20225;-47
2023/05/12 12:15:22;;;;;;;8.50;2.87;;;21.90;33.30;;;;;;5228379;28;20211;-49
2023/05/12 12:17:52;;;;;;;2.33;2.23;;;22.00;33.50;;;;;;5221029;28;20183;-50
2023/05/12 12:20:23;;;;;;;4.73;2.40;;;22.00;33.50;;;;;;5221287;28;20211;-50
2023/05/12 12:22:54;;;;;;;2.80;2.60;;;22.30;33.50;;;;;;5221398;28;20328;-48
2023/05/12 12:25:25;;;;;;;3.80;2.60;;;22.30;33.20;;;;;;5225238;28;20433;-51
2023/05/12 12:27:56;;;;;;;2.77;2.60;;;22.20;33.00;;;;;;5219942;28;20221;-49
2023/05/12 12:30:26;;;;;;;3.03;2.30;;;22.20;33.10;;;;;;5222792;28;20275;-48
2023/05/12 12:32:57;;;;;;;3.87;2.57;;;22.10;32.90;;;;;;5224175;28;20623;-49
2023/05/12 12:35:28;;;;;;;2.67;2.57;;;22.20;33.10;;;;;;5221807;28;20191;-48
2023/05/12 12:37:59;;;;;;;3.23;2.00;;;22.20;32.80;;;;;;5221475;28;20265;-48
2023/05/12 12:40:29;;;;;;;12.43;2.43;;;22.10;32.40;;;;;;5220023;28;20207;-48
2023/05/12 12:43:00;;;;;;;7.17;2.10;;;22.00;33.30;;;;;;5221729;28;20488;-47
2023/05/12 12:45:31;;;;;;;1.80;1.70;;;22.10;33.70;;;;;;5222469;28;20578;-46
2023/05/12 12:48:01;;;;;;;2.57;2.37;;;22.10;32.30;;;;;;5222276;28;20570;-49
2023/05/12 12:50:33;;;;;;;2.97;2.43;;;22.00;32.80;;;;;;5224161;28;20191;-48
2023/05/12 12:53:04;;;;;;;2.93;2.37;;;21.90;32.00;;;;;;5220484;28;20241;-47
2023/05/12 12:55:35;;;;;;;9.07;3.10;;;21.80;31.40;;;;;;5223916;28;20880;-49
2023/05/12 12:58:06;;;;;;;2.30;2.20;;;21.80;32.40;;;;;;5224124;28;20191;-48
2023/05/12 13:00:36;;;;;;;2.73;2.30;;;21.80;32.50;;;;;;5217360;28;20223;-49
2023/05/12 13:03:07;;;;;;;6.10;2.70;;;22.00;32.90;;;;;;5221302;28;20214;-49
2023/05/12 13:05:37;;;;;;;5.37;2.50;;;22.20;32.90;;;;;;5239486;28;20244;-49
2023/05/12 13:08:08;;;;;;;4.00;2.37;;;22.30;32.00;;;;;;5221623;28;20236;-49